createdAt,value
2018-11-05T00:54:41.468Z,27.10
2018-11-05T00:57:09.880Z,27.57
2018-11-05T00:59:38.558Z,27.53
2018-11-05T01:02:06.950Z,26.70
2018-11-05T01:04:35.583Z,27.63
2018-11-05T01:07:03.991Z,27.77
2018-11-05T01:09:32.555Z,27.20
2018-11-05T01:12:01.425Z,27.27
2018-11-05T01:14:30.071Z,27.97
2018-11-05T01:16:58.451Z,27.27
2018-11-05T01:19:27.142Z,27.47
2018-11-05T01:21:55.508Z,31.40
2018-11-05T01:24:23.863Z,32.40
2018-11-05T01:26:52.591Z,31.93
2018-11-05T01:29:20.976Z,32.83
2018-11-05T01:31:49.371Z,32.67
2018-11-05T01:34:17.784Z,31.57
2018-11-05T01:36:46.401Z,33.03
2018-11-05T01:39:14.793Z,32.80
2018-11-05T01:41:43.464Z,33.60
2018-11-05T01:44:11.867Z,33.57
2018-11-05T01:46:40.254Z,32.60
2018-11-05T01:49:08.624Z,34.27
2018-11-05T01:51:37.281Z,36.07
2018-11-05T01:54:05.994Z,34.63
2018-11-05T01:56:34.658Z,36.80
2018-11-05T01:59:03.656Z,38.37
2018-11-05T02:01:32.527Z,37.90
2018-11-05T02:04:00.926Z,37.40
2018-11-05T02:06:29.925Z,36.23
2018-11-05T02:08:58.359Z,34.90
2018-11-05T02:11:26.780Z,37.43
2018-11-05T02:13:55.733Z,39.47
2018-11-05T02:16:24.452Z,38.87
2018-11-05T02:18:53.128Z,39.73
2018-11-05T02:21:21.598Z,39.60
2018-11-05T02:23:50.261Z,39.63
2018-11-05T02:26:18.658Z,40.47
2018-11-05T02:28:47.556Z,38.63
2018-11-05T02:31:15.933Z,36.53
2018-11-05T02:33:44.640Z,38.77
2018-11-05T02:36:13.193Z,36.50
2018-11-05T02:38:41.559Z,37.00
2018-11-05T02:41:10.057Z,39.53
2018-11-05T02:43:38.519Z,37.60
2018-11-05T02:46:06.920Z,35.70
2018-11-05T02:48:35.531Z,36.93
2018-11-05T02:51:03.945Z,35.80
2018-11-05T02:53:32.608Z,35.50
2018-11-05T02:56:01.548Z,33.73
2018-11-05T02:58:29.942Z,32.93
2018-11-05T03:00:58.736Z,32.03
2018-11-05T03:03:27.281Z,32.07
2018-11-05T03:05:55.715Z,33.73
2018-11-05T03:08:24.393Z,32.13
2018-11-05T03:10:53.349Z,30.77
2018-11-05T03:13:21.741Z,29.33
2018-11-05T03:15:50.120Z,30.90
2018-11-05T03:18:18.464Z,31.00
2018-11-05T03:20:47.184Z,31.47
2018-11-05T03:23:15.537Z,31.80
2018-11-05T03:25:43.984Z,30.30
2018-11-05T03:28:12.673Z,29.53
2018-11-05T03:30:41.319Z,29.67
2018-11-05T03:33:09.732Z,28.63
2018-11-05T03:35:38.125Z,29.13
2018-11-05T03:38:07.359Z,31.57
2018-11-05T03:40:36.037Z,31.43
2018-11-05T03:43:04.469Z,33.03
2018-11-05T03:45:32.902Z,41.27
2018-11-05T03:48:01.534Z,38.00
2018-11-05T03:50:30.528Z,39.50
2018-11-05T03:52:59.269Z,38.87
2018-11-05T03:55:27.894Z,42.73
2018-11-05T03:57:56.298Z,42.77
2018-11-05T04:00:25.392Z,41.33
2018-11-05T04:02:53.975Z,40.07
2018-11-05T04:05:22.587Z,38.50
2018-11-05T04:07:51.210Z,37.50
2018-11-05T04:10:19.617Z,34.40
2018-11-05T04:12:49.952Z,34.53
2018-11-05T04:15:18.428Z,34.27
2018-11-05T04:17:46.742Z,33.77
2018-11-05T04:20:15.403Z,34.70
2018-11-05T04:22:45.019Z,34.57
2018-11-05T04:25:13.667Z,35.70
2018-11-05T04:27:42.692Z,37.23
2018-11-05T04:30:13.703Z,35.83
2018-11-05T04:32:42.834Z,35.83
2018-11-05T04:35:12.069Z,36.03
2018-11-05T04:37:40.719Z,36.27
2018-11-05T04:40:10.470Z,36.47
2018-11-05T04:42:39.061Z,34.53
2018-11-05T04:45:09.701Z,35.30
2018-11-05T04:47:38.269Z,35.67
2018-11-05T04:50:08.445Z,35.80
2018-11-05T04:52:37.481Z,34.43
2018-11-05T04:55:06.324Z,33.67
2018-11-05T04:57:34.845Z,32.40
2018-11-05T05:00:09.948Z,32.30
2018-11-05T05:02:39.748Z,34.13
2018-11-05T05:05:09.440Z,33.13
2018-11-05T05:07:37.866Z,34.27
2018-11-05T05:10:07.188Z,32.50
2018-11-05T05:12:35.645Z,31.17
2018-11-05T05:15:04.309Z,37.90
2018-11-05T05:17:33.265Z,36.27
2018-11-05T05:20:01.973Z,31.87
2018-11-05T05:22:30.775Z,32.73
2018-11-05T05:24:59.125Z,33.33
2018-11-05T05:27:27.659Z,32.27
2018-11-05T05:29:56.678Z,36.53
2018-11-05T05:32:25.415Z,33.27
2018-11-05T05:34:54.025Z,31.80
2018-11-05T05:37:22.995Z,31.60
2018-11-05T05:39:52.325Z,32.20
2018-11-05T05:42:20.744Z,33.03
2018-11-05T05:44:49.111Z,32.60
2018-11-05T05:47:17.769Z,34.10
2018-11-05T05:49:46.439Z,34.50
2018-11-05T05:52:15.476Z,34.30
2018-11-05T05:54:43.865Z,35.07
2018-11-05T05:57:12.234Z,35.27
2018-11-05T05:59:40.620Z,34.43
2018-11-05T06:02:09.082Z,34.97
2018-11-05T06:04:37.468Z,33.60
2018-11-05T06:07:07.198Z,34.03
2018-11-05T06:09:35.938Z,35.53
2018-11-05T06:12:04.430Z,33.80
2018-11-05T06:14:32.895Z,35.03
2018-11-05T06:17:01.385Z,36.60
2018-11-05T06:19:30.075Z,36.30
2018-11-05T06:21:58.555Z,36.87
2018-11-05T06:24:27.811Z,36.33
2018-11-05T06:26:56.422Z,34.60
2018-11-05T06:29:25.155Z,34.33
2018-11-05T06:31:53.556Z,33.90
2018-11-05T06:34:22.193Z,35.37
2018-11-05T06:36:50.627Z,35.57
2018-11-05T06:39:19.245Z,34.97
2018-11-05T06:41:47.782Z,35.37
2018-11-05T06:44:16.206Z,33.80
2018-11-05T06:46:44.874Z,35.43
2018-11-05T06:49:13.285Z,33.80
2018-11-05T06:51:42.234Z,32.77
2018-11-05T06:54:12.189Z,32.30
2018-11-05T06:56:40.610Z,31.50
2018-11-05T06:59:09.448Z,31.23
2018-11-05T07:01:37.838Z,30.13
2018-11-05T07:04:06.384Z,28.77
2018-11-05T07:06:35.012Z,28.53
2018-11-05T07:09:03.854Z,26.87
2018-11-05T07:11:32.617Z,26.53
2018-11-05T07:14:00.944Z,27.60
2018-11-05T07:16:29.489Z,25.93
2018-11-05T07:18:58.437Z,26.50
2018-11-05T07:21:27.228Z,25.43
2018-11-05T07:23:55.615Z,24.97
2018-11-05T07:26:24.006Z,24.30
2018-11-05T07:28:52.424Z,25.33
2018-11-05T07:31:21.357Z,25.57
2018-11-05T07:33:50.150Z,26.37
2018-11-05T07:36:18.391Z,24.67
2018-11-05T07:38:47.439Z,26.13
2018-11-05T07:41:16.100Z,25.20
2018-11-05T07:43:44.773Z,25.83
2018-11-05T07:46:13.761Z,26.00
2018-11-05T07:48:42.520Z,26.53
2018-11-05T07:51:11.160Z,25.73
2018-11-05T07:53:39.544Z,25.03
2018-11-05T07:56:08.535Z,24.10
2018-11-05T07:58:37.042Z,24.27
2018-11-05T08:01:05.828Z,23.43
2018-11-05T08:03:34.626Z,21.77
2018-11-05T08:06:03.574Z,21.60
2018-11-05T08:08:32.098Z,21.67
2018-11-05T08:11:00.765Z,20.40
2018-11-05T08:13:29.177Z,19.57
2018-11-05T08:15:57.555Z,19.70
2018-11-05T08:18:26.732Z,18.43
2018-11-05T08:20:55.423Z,18.77
2018-11-05T08:23:24.358Z,18.80
2018-11-05T08:25:52.803Z,18.23
2018-11-05T08:28:21.411Z,18.93
2018-11-05T08:30:50.057Z,19.07
2018-11-05T08:33:18.641Z,19.80
2018-11-05T08:35:47.455Z,19.00
2018-11-05T08:38:16.120Z,19.43
2018-11-05T08:40:44.513Z,17.53
2018-11-05T08:43:12.936Z,18.73
2018-11-05T08:45:41.353Z,19.83
2018-11-05T08:48:09.763Z,20.23
2018-11-05T08:50:38.552Z,19.80
2018-11-05T08:53:07.347Z,19.10
2018-11-05T08:55:35.725Z,19.60
2018-11-05T08:58:04.818Z,19.17
2018-11-05T09:00:38.604Z,19.20
2018-11-05T09:03:07.065Z,19.57
2018-11-05T09:05:35.694Z,19.23
2018-11-05T09:08:04.495Z,20.27
2018-11-05T09:10:33.692Z,19.17
2018-11-05T09:13:02.369Z,22.10
2018-11-05T09:15:30.799Z,20.37
2018-11-05T09:17:59.216Z,22.77
2018-11-05T09:20:28.239Z,26.13
2018-11-05T09:22:57.070Z,26.40
2018-11-05T09:25:25.485Z,26.83
2018-11-05T09:27:54.244Z,28.67
2018-11-05T09:30:23.793Z,27.37
2018-11-05T09:32:52.828Z,27.50
2018-11-05T09:35:21.541Z,25.63
2018-11-05T09:37:50.118Z,25.70
2018-11-05T09:40:20.241Z,26.00
2018-11-05T09:42:49.019Z,25.07
2018-11-05T09:45:20.730Z,24.87
2018-11-05T09:47:49.788Z,24.97
2018-11-05T09:50:19.450Z,26.20
2018-11-05T09:52:47.855Z,25.70
2018-11-05T09:55:17.081Z,26.47
2018-11-05T09:57:45.520Z,23.73
2018-11-05T10:00:20.219Z,25.77
2018-11-05T10:02:54.059Z,24.37
2018-11-05T10:05:22.609Z,23.57
2018-11-05T10:07:51.903Z,23.90
2018-11-05T10:10:21.028Z,20.70
2018-11-05T10:12:49.574Z,19.40
2018-11-05T10:15:18.648Z,18.50
2018-11-05T10:17:47.413Z,18.20
2018-11-05T10:20:19.732Z,17.60
2018-11-05T10:22:48.606Z,16.67
2018-11-05T10:25:17.552Z,15.10
2018-11-05T10:27:46.602Z,15.73
2018-11-05T10:30:17.459Z,15.10
2018-11-05T10:32:46.006Z,14.77
2018-11-05T10:35:15.324Z,13.20
2018-11-05T10:37:44.037Z,12.67
2018-11-05T10:40:14.942Z,12.70
2018-11-05T10:42:44.535Z,13.47
2018-11-05T10:45:14.868Z,12.53
2018-11-05T10:47:43.422Z,13.07
2018-11-05T10:50:13.633Z,13.20
2018-11-05T10:52:42.591Z,12.83
2018-11-05T10:55:11.060Z,13.30
2018-11-05T10:57:40.980Z,12.63
2018-11-05T11:00:15.932Z,13.37
2018-11-05T11:02:48.563Z,13.40
2018-11-05T11:05:16.991Z,12.93
2018-11-05T11:07:45.980Z,13.53
2018-11-05T11:10:14.814Z,13.20
2018-11-05T11:12:43.752Z,12.60
2018-11-05T11:15:12.165Z,12.53
2018-11-05T11:17:41.089Z,12.27
2018-11-05T11:20:11.444Z,11.83
2018-11-05T11:22:39.862Z,11.00
2018-11-05T11:25:09.296Z,10.90
2018-11-05T11:27:38.251Z,10.57
2018-11-05T11:30:08.616Z,10.10
2018-11-05T11:32:37.003Z,10.77
2018-11-05T11:35:06.907Z,10.87
2018-11-05T11:37:35.956Z,10.47
2018-11-05T11:40:06.941Z,10.53
2018-11-05T11:42:35.408Z,9.93
2018-11-05T11:45:04.582Z,9.53
2018-11-05T11:47:33.094Z,8.57
2018-11-05T11:50:01.484Z,9.83
2018-11-05T11:52:29.927Z,9.30
2018-11-05T11:54:58.316Z,9.40
2018-11-05T11:57:26.972Z,10.10
2018-11-05T11:59:55.606Z,9.70
2018-11-05T12:02:24.642Z,9.40
2018-11-05T12:04:53.055Z,9.37
2018-11-05T12:07:21.718Z,9.73
2018-11-05T12:09:50.373Z,9.73
2018-11-05T12:12:18.760Z,9.50
2018-11-05T12:14:47.657Z,11.13
2018-11-05T12:17:16.130Z,10.40
2018-11-05T12:19:45.251Z,11.07
2018-11-05T12:22:13.817Z,10.80
2018-11-05T12:24:42.415Z,11.30
2018-11-05T12:27:10.830Z,11.90
2018-11-05T12:29:39.250Z,11.80
2018-11-05T12:32:07.954Z,11.87
2018-11-05T12:34:36.337Z,12.70
2018-11-05T12:37:04.763Z,11.97
2018-11-05T12:39:33.630Z,12.00
2018-11-05T12:42:02.088Z,11.67
2018-11-05T12:44:30.754Z,11.50
2018-11-05T12:46:59.142Z,11.80
2018-11-05T12:49:27.590Z,11.80
2018-11-05T12:51:56.705Z,10.80
2018-11-05T12:54:25.079Z,11.33
2018-11-05T12:56:53.442Z,11.77
2018-11-05T12:59:21.862Z,10.90
2018-11-05T13:01:50.269Z,11.03
2018-11-05T13:04:18.743Z,11.03
2018-11-05T13:06:47.106Z,10.87
2018-11-05T13:09:15.505Z,10.63
2018-11-05T13:11:43.895Z,10.70
2018-11-05T13:14:12.541Z,10.97
2018-11-05T13:16:41.169Z,9.77
2018-11-05T13:19:09.569Z,10.90
2018-11-05T13:21:38.723Z,10.63
2018-11-05T13:24:13.915Z,10.37
2018-11-05T13:26:42.291Z,9.77
2018-11-05T13:29:11.101Z,9.97
2018-11-05T13:31:39.743Z,9.60
2018-11-05T13:34:08.474Z,9.70
2018-11-05T13:36:37.524Z,9.50
2018-11-05T13:39:08.793Z,9.43
2018-11-05T13:41:37.218Z,9.20
2018-11-05T13:44:06.220Z,8.67
2018-11-05T13:46:35.050Z,8.60
2018-11-05T13:49:03.875Z,9.00
2018-11-05T13:51:32.638Z,9.47
2018-11-05T13:54:01.027Z,9.50
2018-11-05T13:56:29.423Z,9.40
2018-11-05T13:58:58.009Z,9.47
2018-11-05T14:01:26.676Z,9.47
2018-11-05T14:03:55.041Z,9.87
2018-11-05T14:06:23.489Z,10.83
2018-11-05T14:08:52.115Z,9.57
2018-11-05T14:11:20.544Z,9.40
2018-11-05T14:13:49.279Z,9.93
2018-11-05T14:16:17.676Z,9.90
2018-11-05T14:18:46.073Z,10.10
2018-11-05T14:21:15.300Z,9.43
2018-11-05T14:23:44.030Z,9.23
2018-11-05T14:26:13.356Z,10.03
2018-11-05T14:28:42.416Z,9.20
2018-11-05T14:31:10.405Z,9.73
2018-11-05T14:33:39.024Z,9.90
2018-11-05T14:36:07.434Z,9.73
2018-11-05T14:38:36.364Z,9.50
2018-11-05T14:41:05.454Z,9.73
2018-11-05T14:43:34.059Z,9.73
2018-11-05T14:46:02.426Z,10.80
2018-11-05T14:48:30.814Z,10.10
2018-11-05T14:50:59.305Z,10.10
2018-11-05T14:53:27.675Z,9.77
2018-11-05T14:55:56.285Z,10.57
2018-11-05T14:58:24.733Z,10.70
2018-11-05T15:00:53.663Z,10.27
2018-11-05T15:03:22.180Z,10.40
2018-11-05T15:05:50.850Z,10.40
2018-11-05T15:08:19.675Z,10.13
2018-11-05T15:10:48.745Z,10.57
2018-11-05T15:13:17.375Z,11.10
2018-11-05T15:15:45.794Z,10.60
2018-11-05T15:18:14.809Z,11.37
2018-11-05T15:20:43.629Z,10.97
2018-11-05T15:23:12.002Z,11.20
2018-11-05T15:25:41.205Z,11.60
2018-11-05T15:28:09.838Z,11.73
2018-11-05T15:30:38.517Z,12.20
2018-11-05T15:33:07.222Z,12.57
2018-11-05T15:35:36.190Z,12.27
2018-11-05T15:38:04.812Z,11.93
2018-11-05T15:40:33.502Z,11.93
2018-11-05T15:43:01.975Z,12.40
2018-11-05T15:45:30.384Z,12.90
2018-11-05T15:47:58.812Z,13.00
2018-11-05T15:50:27.394Z,13.23
2018-11-05T15:52:56.223Z,13.87
2018-11-05T15:55:24.422Z,13.13
2018-11-05T15:57:52.838Z,15.63
2018-11-05T16:00:23.039Z,17.27
2018-11-05T16:02:57.249Z,16.50
2018-11-05T16:05:25.940Z,16.43
2018-11-05T16:07:55.501Z,15.10
2018-11-05T16:10:24.566Z,15.90
2018-11-05T16:12:52.952Z,15.27
2018-11-05T16:15:21.402Z,15.77
2018-11-05T16:17:50.010Z,17.03
2018-11-05T16:20:19.917Z,15.93
2018-11-05T16:22:49.953Z,16.70
2018-11-05T16:25:18.800Z,16.47
2018-11-05T16:27:47.253Z,17.13
2018-11-05T16:30:17.469Z,16.77
2018-11-05T16:32:47.121Z,17.37
2018-11-05T16:35:16.279Z,16.70
2018-11-05T16:37:45.272Z,15.40
2018-11-05T16:40:16.231Z,16.17
2018-11-05T16:42:46.337Z,16.90
2018-11-05T16:45:15.021Z,15.90
2018-11-05T16:47:44.139Z,17.80
2018-11-05T16:50:15.321Z,18.67
2018-11-05T16:52:44.730Z,18.97
2018-11-05T16:55:14.862Z,19.20
2018-11-05T16:57:43.817Z,19.33
2018-11-05T17:00:13.174Z,19.97
2018-11-05T17:02:42.694Z,19.80
2018-11-05T17:05:10.755Z,18.47
2018-11-05T17:07:39.353Z,19.57
2018-11-05T17:10:09.273Z,18.93
2018-11-05T17:12:37.693Z,17.80
2018-11-05T17:15:08.467Z,15.70
2018-11-05T17:17:37.618Z,15.23
2018-11-05T17:20:08.820Z,15.77
2018-11-05T17:22:37.947Z,15.83
2018-11-05T17:25:07.093Z,15.67
2018-11-05T17:27:35.644Z,17.13
2018-11-05T17:30:04.715Z,16.07
2018-11-05T17:32:33.258Z,15.70
2018-11-05T17:35:01.830Z,15.50
2018-11-05T17:37:30.679Z,14.20
2018-11-05T17:39:59.309Z,16.30
2018-11-05T17:42:28.181Z,16.30
2018-11-05T17:44:56.621Z,16.27
2018-11-05T17:47:25.628Z,14.00
2018-11-05T17:49:55.349Z,14.43
2018-11-05T17:52:24.139Z,14.80
2018-11-05T17:54:52.969Z,11.90
2018-11-05T17:57:21.691Z,11.97
2018-11-05T17:59:50.521Z,11.90
2018-11-05T18:02:23.160Z,9.40
2018-11-05T18:04:53.546Z,9.07
2018-11-05T18:07:23.154Z,15.07
2018-11-05T18:09:52.264Z,11.67
2018-11-05T18:12:21.118Z,11.77
2018-11-05T18:14:49.834Z,9.60
2018-11-05T18:17:18.889Z,10.33
2018-11-05T18:19:47.633Z,11.50
2018-11-05T18:22:16.374Z,12.93
2018-11-05T18:24:45.376Z,12.40
2018-11-05T18:27:13.802Z,12.60
2018-11-05T18:29:42.244Z,12.90
2018-11-05T18:32:14.918Z,13.07
2018-11-05T18:34:43.338Z,13.00
2018-11-05T18:37:11.747Z,11.87
2018-11-05T18:39:40.660Z,12.43
2018-11-05T18:42:09.398Z,11.87
2018-11-05T18:44:37.836Z,12.17
2018-11-05T18:47:07.698Z,11.57
2018-11-05T18:49:37.331Z,11.80
2018-11-05T18:52:06.660Z,10.97
2018-11-05T18:54:36.089Z,10.63
2018-11-05T18:57:04.648Z,9.60
2018-11-05T18:59:33.194Z,10.17
2018-11-05T19:02:02.539Z,9.07
2018-11-05T19:04:31.207Z,9.47
2018-11-05T19:06:59.596Z,9.77
2018-11-05T19:09:29.010Z,9.73
2018-11-05T19:11:57.407Z,9.87
2018-11-05T19:14:25.802Z,10.30
2018-11-05T19:16:54.394Z,10.67
2018-11-05T19:19:22.933Z,10.97
2018-11-05T19:21:51.506Z,10.93
2018-11-05T19:24:20.366Z,11.30
2018-11-05T19:26:48.994Z,11.83
2018-11-05T19:29:17.778Z,10.40
2018-11-05T19:31:46.620Z,10.90
2018-11-05T19:34:15.264Z,13.53
2018-11-05T19:36:44.221Z,13.30
2018-11-05T19:39:14.027Z,12.47
2018-11-05T19:41:43.161Z,15.50
2018-11-05T19:44:12.323Z,14.87
2018-11-05T19:46:40.796Z,15.57
2018-11-05T19:49:09.594Z,15.57
2018-11-05T19:51:37.996Z,14.53
2018-11-05T19:54:07.337Z,13.50
2018-11-05T19:56:35.811Z,13.17
2018-11-05T19:59:04.242Z,14.90
2018-11-05T20:01:33.231Z,16.07
2018-11-05T20:04:01.955Z,16.27
2018-11-05T20:06:31.433Z,15.97
2018-11-05T20:09:00.886Z,15.37
2018-11-05T20:11:29.565Z,15.50
2018-11-05T20:13:58.930Z,15.97
2018-11-05T20:16:27.931Z,17.43
2018-11-05T20:18:56.378Z,18.67
2018-11-05T20:21:25.122Z,17.40
2018-11-05T20:23:53.643Z,17.20
2018-11-05T20:26:22.750Z,17.00
2018-11-05T20:28:51.198Z,17.10
2018-11-05T20:31:19.723Z,17.60
2018-11-05T20:33:48.319Z,17.47
2018-11-05T20:36:16.655Z,18.03
2018-11-05T20:38:46.605Z,17.23
2018-11-05T20:41:15.228Z,17.77
2018-11-05T20:43:43.880Z,18.77
2018-11-05T20:46:13.180Z,18.33
2018-11-05T20:48:42.411Z,18.17
2018-11-05T20:51:12.587Z,17.40
2018-11-05T20:53:41.028Z,16.97
2018-11-05T20:56:09.485Z,18.30
2018-11-05T20:58:37.908Z,18.07
2018-11-05T21:01:06.449Z,17.27
2018-11-05T21:03:35.300Z,17.03
2018-11-05T21:06:03.774Z,18.07
2018-11-05T21:08:32.319Z,19.03
2018-11-05T21:11:01.159Z,19.57
2018-11-05T21:13:29.633Z,18.73
2018-11-05T21:15:58.064Z,18.00
2018-11-05T21:18:26.445Z,18.60
2018-11-05T21:20:54.967Z,17.90
2018-11-05T21:23:23.462Z,20.50
2018-11-05T21:25:52.428Z,19.40
2018-11-05T21:28:21.475Z,20.73
2018-11-05T21:30:50.099Z,20.33
2018-11-05T21:33:18.489Z,20.10
2018-11-05T21:35:47.432Z,20.53
2018-11-05T21:38:15.859Z,18.70
2018-11-05T21:40:44.828Z,18.77
2018-11-05T21:43:13.197Z,18.40
2018-11-05T21:45:41.985Z,19.40
2018-11-05T21:48:10.612Z,18.00
